Wetterdaten: Woche 15.08.16 - 21.08.16 (KW33)
Datum Zeit Temp. Auen Feucht Auen Luftdruck Regen Richtung Windben
15.08.2016 00:00 16,5 C 90 % 1020,5 hPa 0,0 mm W 0,0 km/h (0 Bft)
15.08.2016 01:00 15,7 C 90 % 1020,5 hPa 0,0 mm W 0,1 km/h (0 Bft)
15.08.2016 02:00 15,2 C 90 % 1020,1 hPa 0,0 mm W 0,0 km/h (0 Bft)
15.08.2016 03:00 14,6 C 91 % 1019,8 hPa 0,0 mm W 0,7 km/h (0 Bft)
15.08.2016 04:00 14,3 C 91 % 1019,7 hPa 0,0 mm W 1,9 km/h (1 Bft)
15.08.2016 05:00 14,2 C 91 % 1019,8 hPa 0,0 mm W-NW 0,9 km/h (0 Bft)
15.08.2016 06:00 14,0 C 91 % 1020,0 hPa 0,0 mm W-NW 0,5 km/h (0 Bft)
15.08.2016 07:00 15,1 C 91 % 1020,0 hPa 0,0 mm W-NW 0,4 km/h (0 Bft)
15.08.2016 08:00 17,3 C 90 % 1020,0 hPa 0,0 mm O-SO 3,9 km/h (1 Bft)
15.08.2016 09:00 18,6 C 89 % 1019,8 hPa 0,0 mm O-SO 5,2 km/h (1 Bft)
15.08.2016 10:00 20,6 C 85 % 1019,7 hPa 0,0 mm O 9,0 km/h (2 Bft)
15.08.2016 11:00 21,2 C 83 % 1019,5 hPa 0,0 mm O 8,6 km/h (2 Bft)
15.08.2016 12:00 22,1 C 81 % 1019,1 hPa 0,0 mm SO 8,3 km/h (2 Bft)
15.08.2016 13:00 22,7 C 80 % 1018,8 hPa 0,0 mm S-SO 5,9 km/h (2 Bft)
15.08.2016 14:00 22,5 C 79 % 1018,6 hPa 0,0 mm W-SW 3,7 km/h (1 Bft)
15.08.2016 15:00 23,9 C 74 % 1018,4 hPa 0,0 mm W 5,9 km/h (2 Bft)
15.08.2016 16:00 23,3 C 76 % 1018,2 hPa 0,0 mm O 9,3 km/h (2 Bft)
15.08.2016 17:00 22,6 C 78 % 1018,1 hPa 0,0 mm O 5,7 km/h (1 Bft)
15.08.2016 18:00 22,4 C 78 % 1017,8 hPa 0,0 mm NO 4,5 km/h (1 Bft)
15.08.2016 19:00 21,1 C 85 % 1017,6 hPa 0,0 mm NO 0,7 km/h (0 Bft)
15.08.2016 20:00 18,9 C 88 % 1018,0 hPa 0,0 mm NO 0,4 km/h (0 Bft)
15.08.2016 21:00 17,3 C 90 % 1018,4 hPa 0,0 mm NW 0,1 km/h (0 Bft)
15.08.2016 22:00 16,7 C 90 % 1018,4 hPa 0,0 mm W 2,5 km/h (1 Bft)
15.08.2016 23:00 15,8 C 91 % 1018,5 hPa 0,0 mm W 1,3 km/h (1 Bft)
16.08.2016 00:00 14,9 C 91 % 1018,6 hPa 0,0 mm W 0,9 km/h (0 Bft)
16.08.2016 01:00 14,3 C 91 % 1018,2 hPa 0,0 mm W 1,1 km/h (0 Bft)
16.08.2016 02:00 13,8 C 92 % 1017,9 hPa 0,0 mm W 0,9 km/h (0 Bft)
16.08.2016 03:00 13,4 C 92 % 1017,9 hPa 0,0 mm W 1,1 km/h (0 Bft)
16.08.2016 04:00 12,7 C 92 % 1017,6 hPa 0,0 mm W 0,5 km/h (0 Bft)
16.08.2016 05:00 12,2 C 92 % 1017,3 hPa 0,0 mm W 0,1 km/h (0 Bft)
16.08.2016 06:00 11,9 C 92 % 1017,3 hPa 0,0 mm W 0,3 km/h (0 Bft)
16.08.2016 07:00 13,4 C 92 % 1017,2 hPa 0,0 mm W 0,3 km/h (0 Bft)
16.08.2016 08:00 15,3 C 92 % 1016,8 hPa 0,0 mm SO 4,7 km/h (1 Bft)
16.08.2016 09:00 17,3 C 92 % 1016,7 hPa 0,0 mm SO 4,9 km/h (1 Bft)
16.08.2016 10:00 21,3 C 85 % 1016,3 hPa 0,0 mm O-SO 6,0 km/h (2 Bft)
16.08.2016 11:00 24,4 C 64 % 1015,8 hPa 0,0 mm W 6,7 km/h (2 Bft)
16.08.2016 12:00 26,5 C 51 % 1015,4 hPa 0,0 mm W 8,2 km/h (2 Bft)
16.08.2016 13:00 26,7 C 51 % 1014,9 hPa 0,0 mm W 9,3 km/h (2 Bft)
16.08.2016 14:00 26,1 C 54 % 1014,3 hPa 0,0 mm W 7,2 km/h (2 Bft)
16.08.2016 15:00 26,3 C 52 % 1013,7 hPa 0,0 mm W 11,0 km/h (2 Bft)
16.08.2016 16:00 25,7 C 53 % 1013,2 hPa 0,0 mm W 9,0 km/h (2 Bft)
16.08.2016 17:00 25,4 C 54 % 1012,7 hPa 0,0 mm W-SW 7,1 km/h (2 Bft)
16.08.2016 18:00 24,7 C 56 % 1012,1 hPa 0,0 mm W 5,8 km/h (1 Bft)
16.08.2016 19:00 21,8 C 75 % 1011,8 hPa 0,0 mm N-NW 0,4 km/h (0 Bft)
16.08.2016 20:00 19,0 C 84 % 1011,9 hPa 0,0 mm N-NW 0,5 km/h (0 Bft)
16.08.2016 21:00 17,4 C 88 % 1012,1 hPa 0,0 mm N-NW 0,3 km/h (0 Bft)
16.08.2016 22:00 16,3 C 89 % 1011,8 hPa 0,0 mm N-NW 0,0 km/h (0 Bft)
16.08.2016 23:00 15,6 C 90 % 1011,4 hPa 0,0 mm N-NW 0,5 km/h (0 Bft)
17.08.2016 00:00 15,2 C 90 % 1011,2 hPa 0,0 mm W-NW 1,2 km/h (1 Bft)
17.08.2016 01:00 15,2 C 90 % 1011,2 hPa 0,0 mm W 3,3 km/h (1 Bft)
17.08.2016 02:00 15,5 C 90 % 1011,3 hPa 0,0 mm W 1,6 km/h (1 Bft)
17.08.2016 03:00 15,8 C 90 % 1011,3 hPa 0,0 mm W 1,9 km/h (1 Bft)
17.08.2016 04:00 15,7 C 91 % 1011,2 hPa 0,0 mm W 0,7 km/h (0 Bft)
17.08.2016 05:00 16,0 C 91 % 1011,1 hPa 0,8 mm SW 0,9 km/h (0 Bft)
17.08.2016 06:00 16,4 C 91 % 1011,2 hPa 0,0 mm W 2,9 km/h (1 Bft)
17.08.2016 07:00 16,8 C 90 % 1011,4 hPa 0,0 mm W 1,9 km/h (1 Bft)
17.08.2016 08:00 17,7 C 88 % 1011,5 hPa 0,0 mm W 4,7 km/h (1 Bft)
17.08.2016 09:00 18,4 C 84 % 1011,6 hPa 0,0 mm W 7,1 km/h (2 Bft)
17.08.2016 10:00 19,7 C 80 % 1011,8 hPa 0,0 mm O 7,6 km/h (2 Bft)
17.08.2016 11:00 22,9 C 69 % 1011,7 hPa 0,0 mm W 10,5 km/h (2 Bft)
17.08.2016 12:00 23,5 C 62 % 1011,5 hPa 0,0 mm W 10,3 km/h (2 Bft)
17.08.2016 13:00 23,4 C 58 % 1011,5 hPa 0,0 mm W 9,8 km/h (2 Bft)
17.08.2016 14:00 24,6 C 53 % 1011,2 hPa 0,0 mm W 11,6 km/h (2 Bft)
17.08.2016 15:00 23,3 C 57 % 1010,9 hPa 0,0 mm W 9,1 km/h (2 Bft)
17.08.2016 16:00 22,9 C 56 % 1010,7 hPa 0,0 mm W-SW 9,3 km/h (2 Bft)
17.08.2016 17:00 22,6 C 56 % 1010,4 hPa 0,0 mm W 7,9 km/h (2 Bft)
17.08.2016 18:00 21,8 C 56 % 1010,2 hPa 0,0 mm W-NW 4,1 km/h (1 Bft)
17.08.2016 19:00 19,7 C 71 % 1010,4 hPa 0,0 mm W-NW 0,8 km/h (0 Bft)
17.08.2016 20:00 17,4 C 81 % 1010,7 hPa 0,0 mm W-NW 0,4 km/h (0 Bft)
17.08.2016 21:00 15,3 C 86 % 1011,1 hPa 0,0 mm W-NW 0,5 km/h (0 Bft)
17.08.2016 22:00 14,1 C 88 % 1011,1 hPa 0,0 mm W-NW 0,4 km/h (0 Bft)
17.08.2016 23:00 13,6 C 89 % 1010,8 hPa 0,0 mm W-NW 0,7 km/h (0 Bft)
18.08.2016 00:00 12,8 C 90 % 1010,8 hPa 0,0 mm W-NW 0,3 km/h (0 Bft)
18.08.2016 01:00 12,7 C 90 % 1010,4 hPa 0,0 mm W-NW 0,5 km/h (0 Bft)
18.08.2016 02:00 12,4 C 91 % 1010,1 hPa 0,0 mm W-NW 0,0 km/h (0 Bft)
18.08.2016 03:00 12,1 C 91 % 1010,0 hPa 0,0 mm W-NW 1,1 km/h (0 Bft)
18.08.2016 04:00 11,7 C 91 % 1009,9 hPa 0,0 mm W-NW 0,5 km/h (0 Bft)
18.08.2016 05:00 12,5 C 91 % 1010,0 hPa 0,0 mm W-NW 4,0 km/h (1 Bft)
18.08.2016 06:00 14,2 C 90 % 1010,0 hPa 0,0 mm W 2,1 km/h (1 Bft)
18.08.2016 07:00 14,5 C 90 % 1009,8 hPa 0,0 mm O-NO 0,9 km/h (0 Bft)
18.08.2016 08:00 16,0 C 87 % 1009,8 hPa 0,0 mm O-NO 1,1 km/h (0 Bft)
18.08.2016 09:00 16,8 C 86 % 1010,0 hPa 0,0 mm O 2,0 km/h (1 Bft)
18.08.2016 10:00 17,9 C 84 % 1010,5 hPa 4,0 mm W 6,7 km/h (2 Bft)
18.08.2016 11:00 16,5 C 90 % 1010,9 hPa 0,6 mm W-NW 1,7 km/h (1 Bft)
18.08.2016 12:00 16,5 C 90 % 1010,7 hPa 0,0 mm O-NO 4,5 km/h (1 Bft)
18.08.2016 13:00 18,8 C 86 % 1010,2 hPa 0,0 mm O 6,9 km/h (2 Bft)
18.08.2016 14:00 20,9 C 83 % 1009,4 hPa 0,0 mm O-SO 9,0 km/h (2 Bft)
18.08.2016 15:00 20,8 C 80 % 1009,0 hPa 1,4 mm O-SO 9,1 km/h (2 Bft)
18.08.2016 16:00 16,7 C 87 % 1010,2 hPa 1,8 mm S-SW 4,7 km/h (1 Bft)
18.08.2016 17:00 17,2 C 87 % 1010,1 hPa 0,0 mm S 2,8 km/h (1 Bft)
18.08.2016 18:00 17,3 C 88 % 1010,2 hPa 0,0 mm O-SO 1,9 km/h (1 Bft)
18.08.2016 19:00 17,0 C 89 % 1010,4 hPa 0,0 mm O-SO 0,7 km/h (0 Bft)
18.08.2016 20:00 15,5 C 91 % 1010,8 hPa 0,0 mm O 0,3 km/h (0 Bft)
18.08.2016 21:00 15,3 C 91 % 1011,3 hPa 0,2 mm W 3,7 km/h (1 Bft)
18.08.2016 22:00 15,5 C 91 % 1011,7 hPa 0,0 mm W 0,8 km/h (0 Bft)
18.08.2016 23:00 15,3 C 92 % 1011,8 hPa 0,0 mm W 0,4 km/h (0 Bft)
19.08.2016 00:00 15,2 C 92 % 1012,1 hPa 0,0 mm W 0,3 km/h (0 Bft)
19.08.2016 01:00 15,0 C 92 % 1012,0 hPa 0,0 mm W 0,1 km/h (0 Bft)
19.08.2016 02:00 14,9 C 92 % 1011,6 hPa 0,0 mm W 0,1 km/h (0 Bft)
19.08.2016 03:00 14,9 C 92 % 1011,5 hPa 0,2 mm W 1,1 km/h (0 Bft)
19.08.2016 04:00 14,7 C 92 % 1011,5 hPa 0,0 mm W 0,3 km/h (0 Bft)
19.08.2016 05:00 14,5 C 92 % 1011,5 hPa 0,0 mm W 0,3 km/h (0 Bft)
19.08.2016 06:00 14,4 C 93 % 1011,8 hPa 0,0 mm W 0,5 km/h (0 Bft)
19.08.2016 07:00 15,0 C 93 % 1012,2 hPa 0,2 mm W 0,1 km/h (0 Bft)
19.08.2016 08:00 16,1 C 92 % 1012,4 hPa 0,2 mm W 0,3 km/h (0 Bft)
19.08.2016 09:00 16,8 C 91 % 1012,7 hPa 0,8 mm W 2,0 km/h (1 Bft)
19.08.2016 10:00 17,7 C 89 % 1012,9 hPa 0,2 mm O 3,6 km/h (1 Bft)
19.08.2016 11:00 19,1 C 83 % 1012,9 hPa 0,0 mm SO 5,2 km/h (1 Bft)
19.08.2016 12:00 21,7 C 75 % 1012,8 hPa 0,0 mm W 6,3 km/h (2 Bft)
19.08.2016 13:00 23,2 C 70 % 1012,4 hPa 0,0 mm W 6,4 km/h (2 Bft)
19.08.2016 14:00 24,1 C 63 % 1012,1 hPa 0,0 mm W 7,2 km/h (2 Bft)
19.08.2016 15:00 24,3 C 60 % 1011,7 hPa 0,0 mm W 8,7 km/h (2 Bft)
19.08.2016 16:00 24,1 C 61 % 1011,5 hPa 0,0 mm W 9,8 km/h (2 Bft)
19.08.2016 17:00 23,5 C 64 % 1011,5 hPa 0,0 mm W-NW 5,7 km/h (1 Bft)
19.08.2016 18:00 21,8 C 73 % 1011,5 hPa 0,0 mm S 3,3 km/h (1 Bft)
19.08.2016 19:00 20,2 C 83 % 1011,7 hPa 0,0 mm S 0,3 km/h (0 Bft)
19.08.2016 20:00 17,8 C 88 % 1012,1 hPa 0,0 mm S 0,1 km/h (0 Bft)
19.08.2016 21:00 16,3 C 90 % 1012,6 hPa 0,0 mm S 0,1 km/h (0 Bft)
19.08.2016 22:00 15,3 C 91 % 1012,7 hPa 0,0 mm S 0,0 km/h (0 Bft)
19.08.2016 23:00 14,5 C 91 % 1013,1 hPa 0,0 mm S 0,4 km/h (0 Bft)
20.08.2016 00:00 14,3 C 91 % 1013,5 hPa 0,0 mm W 1,2 km/h (1 Bft)
20.08.2016 01:00 14,1 C 92 % 1013,6 hPa 0,0 mm W 0,0 km/h (0 Bft)
20.08.2016 02:00 14,1 C 92 % 1013,5 hPa 0,0 mm W 0,0 km/h (0 Bft)
20.08.2016 03:00 14,2 C 92 % 1013,5 hPa 0,0 mm W 0,0 km/h (0 Bft)
20.08.2016 04:00 14,7 C 92 % 1013,8 hPa 0,0 mm W 0,0 km/h (0 Bft)
20.08.2016 05:00 14,7 C 92 % 1014,2 hPa 0,0 mm W 0,0 km/h (0 Bft)
20.08.2016 06:00 14,8 C 92 % 1014,5 hPa 0,0 mm W 0,0 km/h (0 Bft)
20.08.2016 07:00 15,4 C 92 % 1014,8 hPa 0,0 mm W 0,1 km/h (0 Bft)
20.08.2016 08:00 18,1 C 89 % 1014,7 hPa 0,0 mm W 1,5 km/h (1 Bft)
20.08.2016 09:00 20,3 C 84 % 1014,5 hPa 0,0 mm SO 4,8 km/h (1 Bft)
20.08.2016 10:00 22,3 C 79 % 1014,2 hPa 0,0 mm SO 7,5 km/h (2 Bft)
20.08.2016 11:00 24,0 C 72 % 1013,8 hPa 0,0 mm O-SO 8,6 km/h (2 Bft)
20.08.2016 12:00 25,4 C 61 % 1013,4 hPa 0,0 mm SO 7,6 km/h (2 Bft)
20.08.2016 13:00 26,0 C 57 % 1013,2 hPa 0,0 mm SO 8,4 km/h (2 Bft)
20.08.2016 14:00 26,0 C 62 % 1012,8 hPa 0,0 mm O-SO 10,2 km/h (2 Bft)
20.08.2016 15:00 26,3 C 62 % 1012,3 hPa 0,0 mm O-SO 10,1 km/h (2 Bft)
20.08.2016 16:00 25,6 C 66 % 1012,1 hPa 0,0 mm O-SO 9,9 km/h (2 Bft)
20.08.2016 17:00 24,3 C 73 % 1012,0 hPa 0,0 mm SO 5,6 km/h (1 Bft)
20.08.2016 18:00 23,5 C 76 % 1012,3 hPa 0,0 mm O-SO 0,5 km/h (0 Bft)
20.08.2016 19:00 22,0 C 83 % 1012,9 hPa 0,0 mm SW 1,5 km/h (1 Bft)
20.08.2016 20:00 21,4 C 83 % 1014,1 hPa 0,2 mm W 10,2 km/h (2 Bft)
20.08.2016 21:00 19,0 C 88 % 1015,6 hPa 0,8 mm W-SW 8,3 km/h (2 Bft)
20.08.2016 22:00 17,9 C 90 % 1015,7 hPa 0,4 mm W-SW 1,3 km/h (1 Bft)
20.08.2016 23:00 17,7 C 91 % 1015,5 hPa 0,0 mm W-SW 0,9 km/h (0 Bft)
21.08.2016 00:00 17,5 C 91 % 1015,4 hPa 0,4 mm W-SW 0,7 km/h (0 Bft)
21.08.2016 01:00 17,4 C 91 % 1015,1 hPa 0,2 mm W-SW 2,0 km/h (1 Bft)
21.08.2016 02:00 17,0 C 92 % 1015,1 hPa 0,2 mm W 1,7 km/h (1 Bft)
21.08.2016 03:00 17,0 C 92 % 1015,2 hPa 1,2 mm W 2,1 km/h (1 Bft)
21.08.2016 04:00 16,7 C 92 % 1015,8 hPa 10,2 mm W 11,1 km/h (2 Bft)
21.08.2016 05:00 14,8 C 92 % 1017,3 hPa 4,2 mm W-SW 25,5 km/h (4 Bft)
21.08.2016 06:00 13,8 C 92 % 1018,8 hPa 1,6 mm W 11,9 km/h (2 Bft)
21.08.2016 07:00 13,7 C 92 % 1019,6 hPa 0,0 mm W 4,5 km/h (1 Bft)
21.08.2016 08:00 14,3 C 92 % 1019,7 hPa 0,0 mm W 0,1 km/h (0 Bft)
21.08.2016 09:00 15,1 C 89 % 1019,6 hPa 0,0 mm W 0,0 km/h (0 Bft)
21.08.2016 10:00 15,8 C 89 % 1019,8 hPa 0,0 mm O 3,1 km/h (1 Bft)
21.08.2016 11:00 16,7 C 84 % 1019,8 hPa 0,2 mm O-NO 2,0 km/h (1 Bft)
21.08.2016 12:00 17,4 C 77 % 1019,7 hPa 0,0 mm S-SO 2,5 km/h (1 Bft)
21.08.2016 13:00 17,2 C 79 % 1019,7 hPa 0,0 mm O-SO 1,6 km/h (1 Bft)
21.08.2016 14:00 17,5 C 82 % 1020,0 hPa 0,0 mm W 2,9 km/h (1 Bft)
21.08.2016 15:00 17,6 C 81 % 1020,2 hPa 0,0 mm W 7,9 km/h (2 Bft)
21.08.2016 16:00 17,4 C 81 % 1020,4 hPa 0,0 mm W 8,8 km/h (2 Bft)
21.08.2016 17:00 17,1 C 82 % 1020,2 hPa 0,0 mm W-SW 3,2 km/h (1 Bft)
21.08.2016 18:00 16,9 C 83 % 1020,5 hPa 0,2 mm W-SW 3,3 km/h (1 Bft)
21.08.2016 19:00 15,7 C 84 % 1021,3 hPa 0,8 mm SW 4,9 km/h (1 Bft)
21.08.2016 20:00 14,1 C 90 % 1022,3 hPa 0,0 mm W-NW 2,0 km/h (1 Bft)
21.08.2016 21:00 13,7 C 92 % 1023,3 hPa 0,0 mm W-NW 1,2 km/h (1 Bft)
21.08.2016 22:00 13,4 C 92 % 1023,6 hPa 0,2 mm W-NW 1,9 km/h (1 Bft)
21.08.2016 23:00 13,0 C 91 % 1023,9 hPa 0,0 mm W 2,9 km/h (1 Bft)
Min-Datum _ 18.08.16 16.08.16 18.08.16 - - 15.08.16
_ Min-Zeit 04:10 12:30 15:15 - - 00:00
Minimum _ 11,6 C 46 % 1008,8 hPa - - 0,0 km/h (0 Bft)
Max-Datum _ 16.08.16 16.08.16 21.08.16 21.08.16 - 21.08.16
_ Max-Zeit 12:20 08:55 22:35 04:40 - 05:40
Maximum _ 27,3 C 93 % 1024,0 hPa 10,2 mm - 35,4 km/h
W (5 Bft)
Durchschnitt _ 18,0 C 83 % 1014,4 hPa #31,2 mm W 3,6 km/h (1 Bft)